sensor_id;sensor_type;location;lat;lon;timestamp;pressure;altitude;pressure_sealevel;temperature;humidity
63665;BME280;49820;33.966;73.390;2022-12-29T00:00:25;78885.28;;;1.92;48.04
63665;BME280;49820;33.966;73.390;2022-12-29T00:02:54;78892.50;;;1.90;48.05
63665;BME280;49820;33.966;73.390;2022-12-29T00:05:23;78870.63;;;1.65;48.18
63665;BME280;49820;33.966;73.390;2022-12-29T00:07:52;78885.16;;;1.74;48.37
63665;BME280;49820;33.966;73.390;2022-12-29T00:10:21;78899.00;;;1.79;48.55
63665;BME280;49820;33.966;73.390;2022-12-29T00:12:50;78885.09;;;1.64;48.76
63665;BME280;49820;33.966;73.390;2022-12-29T00:15:37;78878.53;;;1.61;48.39
63665;BME280;49820;33.966;73.390;2022-12-29T00:18:07;78868.66;;;1.62;47.92
63665;BME280;49820;33.966;73.390;2022-12-29T00:20:37;78893.88;;;2.01;46.28
63665;BME280;49820;33.966;73.390;2022-12-29T00:23:24;78885.41;;;2.21;45.97
63665;BME280;49820;33.966;73.390;2022-12-29T00:26:13;78861.03;;;2.18;45.52
63665;BME280;49820;33.966;73.390;2022-12-29T00:29:02;78861.69;;;2.19;45.71
63665;BME280;49820;33.966;73.390;2022-12-29T00:31:49;78863.00;;;2.22;46.46
63665;BME280;49820;33.966;73.390;2022-12-29T00:34:37;78865.66;;;2.26;46.20
63665;BME280;49820;33.966;73.390;2022-12-29T00:37:24;78832.06;;;2.30;46.46
63665;BME280;49820;33.966;73.390;2022-12-29T00:40:14;78869.69;;;2.49;47.54
63665;BME280;49820;33.966;73.390;2022-12-29T00:43:01;78839.34;;;2.44;47.50
63665;BME280;49820;33.966;73.390;2022-12-29T00:45:50;78859.88;;;2.70;47.26
63665;BME280;49820;33.966;73.390;2022-12-29T00:48:22;78844.00;;;2.48;47.67
63665;BME280;49820;33.966;73.390;2022-12-29T00:51:10;78844.56;;;2.28;48.21
63665;BME280;49820;33.966;73.390;2022-12-29T00:53:38;78870.34;;;2.42;48.29
63665;BME280;49820;33.966;73.390;2022-12-29T00:56:07;78866.38;;;2.39;48.25
63665;BME280;49820;33.966;73.390;2022-12-29T00:58:36;78865.03;;;2.38;48.65
63665;BME280;49820;33.966;73.390;2022-12-29T01:01:07;78882.25;;;2.59;48.28
63665;BME280;49820;33.966;73.390;2022-12-29T01:03:38;78867.69;;;2.44;48.99
63665;BME280;49820;33.966;73.390;2022-12-29T01:06:09;78893.53;;;2.86;49.11
63665;BME280;49820;33.966;73.390;2022-12-29T01:08:38;78890.28;;;3.03;48.17
63665;BME280;49820;33.966;73.390;2022-12-29T01:11:09;78884.34;;;3.03;48.30
63665;BME280;49820;33.966;73.390;2022-12-29T01:13:39;78866.50;;;2.95;48.17
63665;BME280;49820;33.966;73.390;2022-12-29T01:16:10;78869.81;;;2.98;47.55
63665;BME280;49820;33.966;73.390;2022-12-29T01:18:41;78787.28;;;2.39;47.31
63665;BME280;49820;33.966;73.390;2022-12-29T01:21:10;78875.78;;;3.04;47.43
63665;BME280;49820;33.966;73.390;2022-12-29T01:23:38;78858.59;;;2.95;47.57
63665;BME280;49820;33.966;73.390;2022-12-29T01:26:12;78755.59;;;2.20;47.46
63665;BME280;49820;33.966;73.390;2022-12-29T01:28:41;78851.31;;;2.86;48.10
63665;BME280;49820;33.966;73.390;2022-12-29T01:31:13;78879.03;;;2.95;48.76
63665;BME280;49820;33.966;73.390;2022-12-29T01:33:43;78862.53;;;2.92;48.33
63665;BME280;49820;33.966;73.390;2022-12-29T01:36:14;78870.50;;;3.06;48.29
63665;BME280;49820;33.966;73.390;2022-12-29T01:38:44;78831.53;;;2.83;47.06
63665;BME280;49820;33.966;73.390;2022-12-29T01:41:15;78830.22;;;2.76;47.17
63665;BME280;49820;33.966;73.390;2022-12-29T01:43:53;78825.59;;;2.80;46.54
63665;BME280;49820;33.966;73.390;2022-12-29T01:46:41;78848.72;;;2.92;46.54
63665;BME280;49820;33.966;73.390;2022-12-29T01:49:22;78848.03;;;2.89;46.10
63665;BME280;49820;33.966;73.390;2022-12-29T01:52:06;78877.09;;;3.08;45.41
63665;BME280;49820;33.966;73.390;2022-12-29T01:54:51;78860.59;;;3.03;43.42
63665;BME280;49820;33.966;73.390;2022-12-29T01:57:28;78873.81;;;3.21;42.83
63665;BME280;49820;33.966;73.390;2022-12-29T02:00:04;78859.94;;;3.17;41.01
63665;BME280;49820;33.966;73.390;2022-12-29T02:02:39;78840.78;;;3.02;41.57
63665;BME280;49820;33.966;73.390;2022-12-29T02:05:17;78847.41;;;3.17;40.35
63665;BME280;49820;33.966;73.390;2022-12-29T02:07:50;78834.88;;;3.08;39.69
63665;BME280;49820;33.966;73.390;2022-12-29T02:10:25;78851.38;;;3.28;42.47
63665;BME280;49820;33.966;73.390;2022-12-29T02:12:56;78830.91;;;3.04;43.97
63665;BME280;49820;33.966;73.390;2022-12-29T02:16:04;78823.66;;;3.05;44.04
63665;BME280;49820;33.966;73.390;2022-12-29T02:19:00;78844.09;;;3.25;41.38
63665;BME280;49820;33.966;73.390;2022-12-29T02:22:00;78859.28;;;3.26;42.54
63665;BME280;49820;33.966;73.390;2022-12-29T02:27:48;78839.50;;;3.19;41.09
63665;BME280;49820;33.966;73.390;2022-12-29T02:30:56;78864.59;;;3.44;39.88
63665;BME280;49820;33.966;73.390;2022-12-29T02:36:41;78864.59;;;3.63;40.67
63665;BME280;49820;33.966;73.390;2022-12-29T02:39:50;78830.25;;;3.36;40.50
63665;BME280;49820;33.966;73.390;2022-12-29T02:45:16;78872.50;;;3.59;42.82
63665;BME280;49820;33.966;73.390;2022-12-29T02:48:25;78842.16;;;3.31;43.02
63665;BME280;49820;33.966;73.390;2022-12-29T02:51:03;78891.66;;;3.59;43.62
63665;BME280;49820;33.966;73.390;2022-12-29T02:53:34;78890.31;;;3.50;43.87
63665;BME280;49820;33.966;73.390;2022-12-29T02:56:23;78881.09;;;3.43;44.74
63665;BME280;49820;33.966;73.390;2022-12-29T02:58:52;78889.66;;;3.45;44.62
63665;BME280;49820;33.966;73.390;2022-12-29T03:01:53;78906.84;;;3.55;46.13
63665;BME280;49820;33.966;73.390;2022-12-29T03:11:03;78903.53;;;3.40;45.58
63665;BME280;49820;33.966;73.390;2022-12-29T03:13:49;78921.38;;;3.56;45.14
63665;BME280;49820;33.966;73.390;2022-12-29T03:16:46;78918.06;;;4.02;41.87
63665;BME280;49820;33.966;73.390;2022-12-29T03:19:35;78927.97;;;4.09;44.02
63665;BME280;49820;33.966;73.390;2022-12-29T03:22:08;78906.19;;;3.87;39.61
63665;BME280;49820;33.966;73.390;2022-12-29T03:25:08;78941.84;;;4.16;39.73
63665;BME280;49820;33.966;73.390;2022-12-29T03:27:49;78938.53;;;4.15;40.23
63665;BME280;49820;33.966;73.390;2022-12-29T03:30:20;78941.84;;;4.18;38.39
63665;BME280;49820;33.966;73.390;2022-12-29T04:30:40;78941.28;;;5.84;49.08
63665;BME280;49820;33.966;73.390;2022-12-29T04:33:20;78967.72;;;6.00;48.11
63665;BME280;49820;33.966;73.390;2022-12-29T04:35:50;78949.25;;;5.82;46.69
63665;BME280;49820;33.966;73.390;2022-12-29T04:38:22;78961.78;;;5.98;47.66
63665;BME280;49820;33.966;73.390;2022-12-29T04:40:52;78967.75;;;5.92;46.76
63665;BME280;49820;33.966;73.390;2022-12-29T04:43:23;78948.59;;;5.80;46.09
63665;BME280;49820;33.966;73.390;2022-12-29T04:46:10;78953.09;;;6.07;47.04
63665;BME280;49820;33.966;73.390;2022-12-29T04:49:00;78947.72;;;6.20;47.15
63665;BME280;49820;33.966;73.390;2022-12-29T04:51:59;78943.72;;;6.19;46.69
63665;BME280;49820;33.966;73.390;2022-12-29T04:54:29;78937.81;;;6.10;46.48
63665;BME280;49820;33.966;73.390;2022-12-29T04:57:13;78912.19;;;5.70;46.35
63665;BME280;49820;33.966;73.390;2022-12-29T04:59:48;78973.03;;;6.00;45.91
63665;BME280;49820;33.966;73.390;2022-12-29T05:02:17;78993.56;;;6.02;46.23
63665;BME280;49820;33.966;73.390;2022-12-29T05:04:49;78996.97;;;5.80;46.71
63665;BME280;49820;33.966;73.390;2022-12-29T05:07:19;79010.22;;;5.78;46.79
63665;BME280;49820;33.966;73.390;2022-12-29T06:56:16;78794.50;;;2.18;100.00
63665;BME280;49820;33.966;73.390;2022-12-29T06:58:46;78779.31;;;2.12;99.70
63665;BME280;49820;33.966;73.390;2022-12-29T07:01:15;78782.06;;;2.59;98.66
63665;BME280;49820;33.966;73.390;2022-12-29T07:03:45;78754.38;;;2.90;94.80
63665;BME280;49820;33.966;73.390;2022-12-29T07:06:14;78711.50;;;2.90;92.34
63665;BME280;49820;33.966;73.390;2022-12-29T07:08:43;78764.91;;;3.35;93.08
63665;BME280;49820;33.966;73.390;2022-12-29T07:11:11;78727.28;;;3.36;90.01
63665;BME280;49820;33.966;73.390;2022-12-29T07:13:41;78708.72;;;3.69;86.94
63665;BME280;49820;33.966;73.390;2022-12-29T07:16:10;78736.31;;;4.08;82.43
63665;BME280;49820;33.966;73.390;2022-12-29T07:18:39;78729.00;;;4.23;80.57
63665;BME280;49820;33.966;73.390;2022-12-29T07:21:09;78702.78;;;3.70;80.56
63665;BME280;49820;33.966;73.390;2022-12-29T07:23:38;78699.69;;;4.64;79.41
63665;BME280;49820;33.966;73.390;2022-12-29T07:26:11;78747.81;;;5.76;72.03
63665;BME280;49820;33.966;73.390;2022-12-29T07:28:41;78718.16;;;4.74;70.51
63665;BME280;49820;33.966;73.390;2022-12-29T07:31:14;78742.00;;;4.64;73.57
63665;BME280;49820;33.966;73.390;2022-12-29T07:33:46;78715.75;;;4.29;73.89
63665;BME280;49820;33.966;73.390;2022-12-29T07:36:16;78679.63;;;3.81;73.02
63665;BME280;49820;33.966;73.390;2022-12-29T07:38:45;78720.31;;;4.45;71.94
63665;BME280;49820;33.966;73.390;2022-12-29T07:41:14;78710.34;;;4.53;71.21
63665;BME280;49820;33.966;73.390;2022-12-29T07:43:46;78727.97;;;4.91;69.58
63665;BME280;49820;33.966;73.390;2022-12-29T07:46:30;78709.44;;;4.91;69.85
63665;BME280;49820;33.966;73.390;2022-12-29T07:49:18;78728.34;;;4.16;71.48
63665;BME280;49820;33.966;73.390;2022-12-29T07:51:47;78741.00;;;3.96;73.41
63665;BME280;49820;33.966;73.390;2022-12-29T07:54:16;78742.41;;;3.66;74.39
63665;BME280;49820;33.966;73.390;2022-12-29T07:56:48;78726.63;;;3.28;77.03
63665;BME280;49820;33.966;73.390;2022-12-29T07:59:17;78753.00;;;3.52;77.10
63665;BME280;49820;33.966;73.390;2022-12-29T08:01:47;78769.47;;;3.69;77.14
63665;BME280;49820;33.966;73.390;2022-12-29T08:04:16;78736.53;;;3.39;77.88
63665;BME280;49820;33.966;73.390;2022-12-29T08:06:45;78755.00;;;3.48;77.63
63665;BME280;49820;33.966;73.390;2022-12-29T08:09:14;78767.53;;;3.53;78.08
63665;BME280;49820;33.966;73.390;2022-12-29T08:11:49;78774.13;;;3.54;77.89
63665;BME280;49820;33.966;73.390;2022-12-29T08:14:18;78760.91;;;3.50;76.09
63665;BME280;49820;33.966;73.390;2022-12-29T08:16:47;78803.81;;;3.73;77.16
63665;BME280;49820;33.966;73.390;2022-12-29T08:19:16;78787.97;;;3.71;75.70
63665;BME280;49820;33.966;73.390;2022-12-29T08:21:47;78786.00;;;3.41;77.74
63665;BME280;49820;33.966;73.390;2022-12-29T08:24:16;78782.72;;;3.51;73.04
63665;BME280;49820;33.966;73.390;2022-12-29T08:26:45;78795.22;;;3.80;73.14
63665;BME280;49820;33.966;73.390;2022-12-29T08:29:14;78765.56;;;3.45;77.31
63665;BME280;49820;33.966;73.390;2022-12-29T08:31:43;78772.16;;;3.57;74.02
63665;BME280;49820;33.966;73.390;2022-12-29T08:34:11;78784.03;;;3.64;73.59
63665;BME280;49820;33.966;73.390;2022-12-29T08:36:40;78766.22;;;3.46;74.08
63665;BME280;49820;33.966;73.390;2022-12-29T08:39:09;78810.44;;;3.64;75.58
63665;BME280;49820;33.966;73.390;2022-12-29T08:41:39;78813.72;;;3.76;72.96
63665;BME280;49820;33.966;73.390;2022-12-29T08:44:08;78780.03;;;3.67;60.64
63665;BME280;49820;33.966;73.390;2022-12-29T08:46:37;78727.25;;;3.44;68.76
63665;BME280;49820;33.966;73.390;2022-12-29T08:49:06;78766.13;;;3.95;69.91
63665;BME280;49820;33.966;73.390;2022-12-29T08:51:35;78755.53;;;3.97;64.90
63665;BME280;49820;33.966;73.390;2022-12-29T08:54:04;78711.34;;;3.77;64.08
63665;BME280;49820;33.966;73.390;2022-12-29T08:56:33;78729.13;;;3.87;64.91
63665;BME280;49820;33.966;73.390;2022-12-29T08:59:02;78761.53;;;3.79;65.50
63665;BME280;49820;33.966;73.390;2022-12-29T09:01:33;78777.41;;;3.67;66.07
63665;BME280;49820;33.966;73.390;2022-12-29T09:04:04;78781.38;;;3.52;68.51
63665;BME280;49820;33.966;73.390;2022-12-29T09:06:44;78788.66;;;3.43;67.69
63665;BME280;49820;33.966;73.390;2022-12-29T09:09:13;78787.34;;;3.34;69.13
63665;BME280;49820;33.966;73.390;2022-12-29T09:11:43;78768.19;;;3.41;66.17
63665;BME280;49820;33.966;73.390;2022-12-29T09:14:12;78764.91;;;3.33;63.41
63665;BME280;49820;33.966;73.390;2022-12-29T09:16:41;78781.41;;;3.45;59.50
